Darwin International Airport
YPDN : now visible

Airfield :











YOU CAN JOIN US ON...

 
LOGIN :

Register | Disclaimer

   EN    FR    IT 

 









Legend :    VFR   Marginal VFR   IFR   Intensive IFR   Very Intensive IFR
Visi :
Ceiling :
>= 8 km
>= 3000ft
5 to 8 km
1000 to 3000 ft
1500m to 5 km
500 to 1000 ft
800 to 1500m
200 to 500 ft
< 800m
< 200 ft
Symbols :   Thunderstorms  Fog  Heavy snow  Heavy precipitations  Wind > 20 kt






- Airport Elevation : 103 ft
- IATA code : DRW


YPDN - Darwin International

CURRENT METAR :
  • 260400Z 32009KT 9999 FEW041TCU 33/22 Q1009

EXPIRED METARs :
  • 260330Z 31008KT 9999 FEW041TCU 33/22 Q1010
  • 260300Z 31006KT 9999 SCT040TCU 34/22 Q1010
  • 260230Z 27002KT 9999 FEW040TCU 33/22 Q1011
  • 260200Z 17005KT 090V240 9999 SCT039 33/22 Q1011
  • 260130Z 16004KT 9999 FEW037 SCT060 33/22 Q1012

TAF TAF YPDN
Valid from the 26 at 03:00 until the 27 at 06:00 UTC


260205Z 2603/2706 33010KT 9999 SCT025
FM261200 VRB05KT 9999 SCT020
FM270000 33012KT 9999 SCT025 INTER 2616/2621 4000 SHRA BKN010
PROB30
TEMPO 2604/2608 VRB20G35KT 1000 TSRA BKN010 SCT025
PROB30
TEMPO 2704/2706 VRB20G35KT 1000 TSRA BKN010 SCT025
YBBB FIR / Oceania



MET'MAP, your aeronautical weather chart ! - Copyright ORBIFLY December 2007 - Disclaimer

ORBIFLY MET'MAP TEAM :

Programming & Development : Alexandra Zaïnal
Concept & original design : Baudouin d'Aumeries
Assistance for programming : Marc-Olivier Méhu
Technical & hardware support : Manuel Goepfert

Contact : metmap@orbifly.com




SOURCES & CREDITS :

   NOAA       Earth
Advisory